Time;durP1;ratioP1;P1;durP2;ratioP2;P2;SDS_P1;SDS_P2;PMS_P1;PMS_P2;Temp;Humidity;BMP_temperature;BMP_pressure;BME280_temperature;BME280_humidity;BME280_pressure;Samples;Min_cycle;Max_cycle;Signal;HPM_P1;HPM_P2
2023/01/10 00:01:55;;;;;;;39.72;6.05;;;;;;;;;;5041424;28;20028;-74
2023/01/10 00:04:25;;;;;;;29.67;4.45;;;;;;;;;;5036745;28;20095;-74
2023/01/10 00:06:50;;;;;;;38.05;5.70;;;;;;;;;;5043107;28;20037;-74
2023/01/10 00:09:15;;;;;;;39.83;5.57;;;;;;;;;;5045515;28;20047;-75
2023/01/10 00:14:28;;;;;;;39.95;6.03;;;;;;;;;;5042938;28;20033;-74
2023/01/10 00:16:54;;;;;;;33.35;6.10;;;;;;;;;;5044983;28;20031;-74
2023/01/10 00:19:19;;;;;;;45.78;7.25;;;;;;;;;;5041989;28;20474;-74
2023/01/10 00:21:47;;;;;;;43.55;5.97;;;;;;;;;;5043509;28;20052;-74
2023/01/10 00:24:22;;;;;;;36.58;6.22;;;;;;;;;;5043893;28;20032;-75
2023/01/10 00:26:49;;;;;;;42.40;5.95;;;;;;;;;;5009938;28;20045;-74
2023/01/10 00:29:28;;;;;;;33.70;5.90;;;;;;;;;;5013972;28;20157;-72
2023/01/10 00:31:53;;;;;;;35.90;6.03;;;;;;;;;;5016565;28;20059;-74
2023/01/10 00:34:19;;;;;;;32.08;4.90;;;;;;;;;;5045775;28;20029;-75
2023/01/10 00:36:46;;;;;;;31.77;6.03;;;;;;;;;;5043869;28;20094;-75
2023/01/10 00:39:13;;;;;;;35.08;5.43;;;;;;;;;;5037960;28;20110;-73
2023/01/10 00:44:22;;;;;;;39.63;5.40;;;;;;;;;;5012809;28;20375;-75
2023/01/10 00:46:48;;;;;;;34.63;5.30;;;;;;;;;;4998015;28;20067;-73
2023/01/10 00:49:15;;;;;;;38.28;5.68;;;;;;;;;;5028130;28;20340;-72
2023/01/10 00:51:42;;;;;;;44.08;6.07;;;;;;;;;;5001626;28;20037;-72
2023/01/10 00:54:08;;;;;;;32.67;6.13;;;;;;;;;;5002320;28;20032;-73
2023/01/10 00:56:34;;;;;;;26.92;5.63;;;;;;;;;;4996774;28;20041;-73
2023/01/10 00:59:01;;;;;;;34.08;5.47;;;;;;;;;;5002108;28;20543;-76
2023/01/10 01:01:27;;;;;;;38.75;6.22;;;;;;;;;;5020757;28;20033;-76
2023/01/10 01:03:52;;;;;;;44.38;5.72;;;;;;;;;;5024036;28;20030;-75
2023/01/10 01:06:18;;;;;;;47.17;6.28;;;;;;;;;;5026103;28;20029;-77
2023/01/10 01:08:43;;;;;;;30.83;4.88;;;;;;;;;;5012987;28;20034;-72
2023/01/10 01:11:08;;;;;;;36.22;6.22;;;;;;;;;;5002399;28;20034;-72
2023/01/10 01:13:35;;;;;;;34.50;6.60;;;;;;;;;;5003412;28;20038;-73
2023/01/10 01:16:00;;;;;;;41.03;6.05;;;;;;;;;;4985524;28;20599;-73
2023/01/10 01:18:26;;;;;;;41.97;7.45;;;;;;;;;;5001857;28;20053;-74
2023/01/10 01:20:55;;;;;;;37.40;7.15;;;;;;;;;;5004932;28;20933;-73
2023/01/10 01:23:21;;;;;;;35.97;6.03;;;;;;;;;;5001741;28;20049;-73
2023/01/10 01:25:49;;;;;;;40.00;7.13;;;;;;;;;;5004552;28;20026;-75
2023/01/10 01:28:14;;;;;;;40.42;5.70;;;;;;;;;;5004180;28;20665;-73
2023/01/10 01:30:40;;;;;;;39.30;6.53;;;;;;;;;;5004347;28;20449;-72
2023/01/10 01:33:05;;;;;;;35.17;6.28;;;;;;;;;;4985737;28;20033;-73
2023/01/10 01:35:33;;;;;;;41.80;5.70;;;;;;;;;;5004287;28;20049;-73
2023/01/10 01:38:01;;;;;;;38.47;6.28;;;;;;;;;;4984483;28;20034;-72
2023/01/10 01:40:27;;;;;;;48.45;6.45;;;;;;;;;;4982570;28;20104;-73
2023/01/10 01:42:54;;;;;;;46.50;6.32;;;;;;;;;;4984167;28;20444;-73
2023/01/10 01:45:22;;;;;;;34.53;4.97;;;;;;;;;;4986684;28;21063;-72
2023/01/10 01:48:00;;;;;;;53.85;6.50;;;;;;;;;;4996151;28;20526;-73
2023/01/10 01:50:28;;;;;;;35.05;5.90;;;;;;;;;;4977439;28;20350;-72
2023/01/10 01:52:56;;;;;;;43.55;7.00;;;;;;;;;;5001665;28;20036;-73
2023/01/10 01:55:23;;;;;;;36.90;5.63;;;;;;;;;;4984435;28;20053;-73
2023/01/10 01:57:52;;;;;;;37.55;6.05;;;;;;;;;;4985345;28;20055;-73
2023/01/10 02:00:20;;;;;;;46.85;5.97;;;;;;;;;;5003368;28;20080;-72
2023/01/10 02:02:48;;;;;;;46.53;6.10;;;;;;;;;;5002091;28;20034;-72
2023/01/10 02:05:15;;;;;;;39.67;6.72;;;;;;;;;;5003500;28;20530;-75
2023/01/10 02:07:44;;;;;;;43.38;7.03;;;;;;;;;;5001340;28;20037;-73
2023/01/10 02:10:16;;;;;;;48.83;6.70;;;;;;;;;;5002126;28;20037;-74
2023/01/10 02:12:42;;;;;;;35.50;5.70;;;;;;;;;;4983897;28;20558;-73
2023/01/10 02:15:08;;;;;;;43.72;6.10;;;;;;;;;;4985647;28;20033;-72
2023/01/10 02:17:34;;;;;;;41.95;5.80;;;;;;;;;;5017581;28;20029;-73
2023/01/10 02:20:02;;;;;;;36.40;5.60;;;;;;;;;;5003000;28;20791;-72
2023/01/10 02:22:46;;;;;;;41.55;7.05;;;;;;;;;;5002796;28;20048;-72
2023/01/10 02:25:20;;;;;;;43.05;7.10;;;;;;;;;;5002799;28;20515;-73
2023/01/10 02:28:04;;;;;;;38.05;6.45;;;;;;;;;;5016877;28;20060;-73
2023/01/10 02:30:48;;;;;;;42.25;6.93;;;;;;;;;;5002951;28;20041;-73
2023/01/10 02:33:24;;;;;;;44.78;6.82;;;;;;;;;;4982670;28;20527;-73
2023/01/10 02:35:55;;;;;;;35.28;5.70;;;;;;;;;;5000482;28;20196;-73
2023/01/10 02:38:29;;;;;;;33.28;4.75;;;;;;;;;;5017017;28;20055;-73
2023/01/10 02:41:08;;;;;;;58.85;6.70;;;;;;;;;;5022849;28;20033;-73
2023/01/10 02:43:36;;;;;;;35.50;6.18;;;;;;;;;;5022406;28;20033;-73
2023/01/10 02:46:07;;;;;;;40.33;6.38;;;;;;;;;;5056904;28;20044;-72
2023/01/10 02:48:32;;;;;;;43.38;6.25;;;;;;;;;;5039549;28;20419;-72
2023/01/10 02:51:01;;;;;;;41.55;7.45;;;;;;;;;;5043149;28;20044;-73
2023/01/10 02:53:33;;;;;;;49.83;6.45;;;;;;;;;;5041888;28;20028;-73
2023/01/10 02:56:17;;;;;;;39.90;6.20;;;;;;;;;;5020536;28;20053;-73
2023/01/10 02:59:01;;;;;;;31.83;5.88;;;;;;;;;;5042360;28;20032;-73
2023/01/10 03:01:44;;;;;;;38.40;5.72;;;;;;;;;;5040814;28;20131;-72
2023/01/10 03:04:16;;;;;;;41.30;6.35;;;;;;;;;;5039812;28;20488;-73
2023/01/10 03:06:45;;;;;;;40.97;6.28;;;;;;;;;;5041648;28;20516;-72
2023/01/10 03:09:16;;;;;;;54.63;6.80;;;;;;;;;;5042201;28;20105;-74
2023/01/10 03:11:43;;;;;;;37.35;5.82;;;;;;;;;;5039743;28;20032;-73
2023/01/10 03:14:11;;;;;;;35.65;5.63;;;;;;;;;;5041825;28;20537;-72
2023/01/10 03:16:39;;;;;;;36.10;5.65;;;;;;;;;;5042156;28;20335;-72
2023/01/10 03:19:07;;;;;;;34.95;5.70;;;;;;;;;;5041302;28;20194;-72
2023/01/10 03:21:34;;;;;;;39.97;5.80;;;;;;;;;;5040067;28;20040;-72
2023/01/10 03:24:02;;;;;;;43.45;6.55;;;;;;;;;;5042096;28;20041;-72
2023/01/10 03:26:50;;;;;;;47.55;7.25;;;;;;;;;;5039938;28;20205;-72
2023/01/10 03:29:20;;;;;;;43.88;6.45;;;;;;;;;;5030399;28;20128;-73
2023/01/10 03:31:49;;;;;;;29.40;6.00;;;;;;;;;;5038961;28;20134;-73
2023/01/10 03:34:15;;;;;;;47.78;6.70;;;;;;;;;;5041716;28;20147;-72
2023/01/10 03:36:51;;;;;;;38.40;6.85;;;;;;;;;;5027661;28;20041;-71
2023/01/10 03:39:23;;;;;;;40.97;7.35;;;;;;;;;;5021622;28;20594;-72
2023/01/10 03:41:48;;;;;;;40.05;6.20;;;;;;;;;;5019437;28;20029;-72
2023/01/10 03:47:07;;;;;;;36.83;6.35;;;;;;;;;;5040377;28;20104;-75
2023/01/10 03:49:36;;;;;;;41.70;6.25;;;;;;;;;;4987580;28;20554;-73
2023/01/10 03:52:03;;;;;;;38.53;5.70;;;;;;;;;;5032738;28;20380;-72
2023/01/10 03:54:29;;;;;;;41.20;5.80;;;;;;;;;;5002291;28;20037;-72
2023/01/10 03:56:54;;;;;;;42.72;6.47;;;;;;;;;;4998645;28;20464;-72
2023/01/10 03:59:23;;;;;;;38.80;5.90;;;;;;;;;;5000010;28;20553;-73
2023/01/10 04:01:48;;;;;;;48.45;6.20;;;;;;;;;;5001022;28;20041;-73
2023/01/10 04:04:14;;;;;;;37.20;5.60;;;;;;;;;;5001670;28;20034;-72
2023/01/10 04:06:40;;;;;;;37.67;6.07;;;;;;;;;;5001537;28;20036;-72
2023/01/10 04:09:06;;;;;;;41.08;6.43;;;;;;;;;;5018633;28;20029;-72
2023/01/10 04:11:31;;;;;;;52.97;6.40;;;;;;;;;;5021056;28;20052;-72
2023/01/10 04:13:56;;;;;;;40.53;5.55;;;;;;;;;;5019651;28;20036;-72
2023/01/10 04:16:22;;;;;;;34.38;6.63;;;;;;;;;;5021229;28;20565;-73
2023/01/10 04:18:47;;;;;;;47.38;6.43;;;;;;;;;;5020950;28;20560;-72
2023/01/10 04:21:13;;;;;;;48.92;7.30;;;;;;;;;;5020332;28;20037;-72
2023/01/10 04:23:41;;;;;;;39.40;5.43;;;;;;;;;;5021234;28;20033;-72
2023/01/10 04:26:06;;;;;;;37.05;6.60;;;;;;;;;;5020319;28;20029;-72
2023/01/10 04:28:32;;;;;;;30.73;5.25;;;;;;;;;;5020780;28;20619;-72
2023/01/10 04:30:57;;;;;;;43.50;6.50;;;;;;;;;;5020965;28;20116;-72
2023/01/10 04:33:23;;;;;;;48.70;7.07;;;;;;;;;;5020956;28;20025;-72
2023/01/10 04:35:49;;;;;;;42.67;6.32;;;;;;;;;;5020912;28;20592;-72
2023/01/10 04:38:15;;;;;;;56.78;5.90;;;;;;;;;;5019081;28;20071;-72
2023/01/10 04:40:40;;;;;;;35.45;6.07;;;;;;;;;;5018962;28;20510;-73
2023/01/10 04:43:06;;;;;;;37.03;6.18;;;;;;;;;;5021264;28;20029;-73
2023/01/10 04:45:31;;;;;;;45.95;6.90;;;;;;;;;;5020561;28;20473;-73
2023/01/10 04:47:59;;;;;;;44.22;7.07;;;;;;;;;;5015445;28;20045;-73
2023/01/10 04:50:24;;;;;;;50.53;7.50;;;;;;;;;;5000687;28;20166;-73
2023/01/10 04:52:50;;;;;;;44.20;6.85;;;;;;;;;;5004627;28;20552;-73
2023/01/10 04:55:16;;;;;;;60.35;8.27;;;;;;;;;;5002229;28;20084;-73
2023/01/10 04:57:46;;;;;;;47.83;6.93;;;;;;;;;;5004908;28;20033;-73
2023/01/10 05:00:12;;;;;;;46.67;7.18;;;;;;;;;;5004266;28;20651;-73
2023/01/10 05:02:42;;;;;;;47.95;7.97;;;;;;;;;;5004730;28;20037;-73
2023/01/10 05:05:08;;;;;;;67.05;9.90;;;;;;;;;;5001895;28;20041;-73
2023/01/10 05:07:34;;;;;;;42.83;6.78;;;;;;;;;;5005413;28;20603;-73
2023/01/10 05:10:02;;;;;;;60.25;8.05;;;;;;;;;;5015720;28;20029;-76
2023/01/10 05:12:27;;;;;;;47.47;7.65;;;;;;;;;;5024575;28;20049;-73
2023/01/10 05:14:52;;;;;;;43.70;7.28;;;;;;;;;;5025979;28;20099;-75
2023/01/10 05:17:20;;;;;;;50.33;7.25;;;;;;;;;;5013664;28;20249;-72
2023/01/10 05:19:45;;;;;;;48.17;6.85;;;;;;;;;;5001785;28;20045;-73
2023/01/10 05:22:11;;;;;;;39.40;6.65;;;;;;;;;;5002491;28;20445;-73
2023/01/10 05:24:36;;;;;;;38.85;6.57;;;;;;;;;;5003802;28;20029;-72
2023/01/10 05:27:01;;;;;;;48.90;6.85;;;;;;;;;;5018786;28;20132;-72
2023/01/10 05:29:27;;;;;;;45.38;6.15;;;;;;;;;;5004103;28;20034;-72
2023/01/10 05:31:52;;;;;;;43.55;6.97;;;;;;;;;;5004629;28;20071;-74
2023/01/10 05:34:18;;;;;;;41.88;6.25;;;;;;;;;;5019150;28;20337;-73
2023/01/10 05:36:45;;;;;;;41.38;7.45;;;;;;;;;;5023954;28;20049;-72
2023/01/10 05:39:14;;;;;;;35.90;6.60;;;;;;;;;;5022024;28;20071;-72
2023/01/10 05:41:40;;;;;;;36.90;6.28;;;;;;;;;;5023706;28;20037;-73
2023/01/10 05:44:05;;;;;;;50.17;7.35;;;;;;;;;;5023996;28;20554;-72
2023/01/10 05:46:31;;;;;;;47.53;7.85;;;;;;;;;;5029549;28;20044;-72
2023/01/10 05:48:56;;;;;;;42.13;6.97;;;;;;;;;;5024011;28;20056;-72
2023/01/10 05:51:21;;;;;;;42.58;5.88;;;;;;;;;;5043542;28;20255;-72
2023/01/10 05:53:47;;;;;;;50.33;6.55;;;;;;;;;;5043214;28;20033;-72
2023/01/10 05:56:13;;;;;;;38.95;6.03;;;;;;;;;;5043429;28;20041;-72
2023/01/10 05:58:38;;;;;;;28.20;5.18;;;;;;;;;;5042793;28;20111;-72
2023/01/10 06:01:04;;;;;;;48.25;6.70;;;;;;;;;;5024523;28;20033;-72
2023/01/10 06:03:29;;;;;;;37.15;5.97;;;;;;;;;;5039714;28;20130;-74
2023/01/10 06:05:57;;;;;;;50.25;8.57;;;;;;;;;;5043748;28;20056;-72
2023/01/10 06:08:23;;;;;;;45.58;7.13;;;;;;;;;;5042794;28;20032;-74
2023/01/10 06:10:49;;;;;;;39.50;6.25;;;;;;;;;;5043317;28;20397;-73
2023/01/10 06:13:16;;;;;;;43.55;6.63;;;;;;;;;;5042888;28;20227;-73
2023/01/10 06:15:42;;;;;;;33.55;5.97;;;;;;;;;;5043017;28;20050;-72
2023/01/10 06:18:07;;;;;;;43.60;5.90;;;;;;;;;;5040468;28;20040;-72
2023/01/10 06:20:35;;;;;;;53.67;7.53;;;;;;;;;;5040595;28;20048;-73
2023/01/10 06:23:03;;;;;;;46.85;6.95;;;;;;;;;;5041218;28;20609;-73
2023/01/10 06:25:28;;;;;;;44.47;7.13;;;;;;;;;;5040732;28;20188;-72
2023/01/10 06:27:54;;;;;;;43.40;6.78;;;;;;;;;;5043095;28;20200;-72
2023/01/10 06:30:19;;;;;;;42.83;6.15;;;;;;;;;;5040785;28;20028;-72
2023/01/10 06:32:44;;;;;;;42.08;6.03;;;;;;;;;;5027695;28;20560;-72
2023/01/10 06:35:12;;;;;;;36.72;6.20;;;;;;;;;;5020677;28;20497;-73
2023/01/10 06:37:37;;;;;;;41.45;6.90;;;;;;;;;;5022687;28;20057;-74
2023/01/10 06:40:05;;;;;;;38.25;6.65;;;;;;;;;;5022477;28;20079;-72
2023/01/10 06:42:33;;;;;;;48.65;6.63;;;;;;;;;;5022385;28;20044;-73
2023/01/10 06:44:59;;;;;;;38.40;5.85;;;;;;;;;;5020645;28;20033;-72
2023/01/10 06:47:24;;;;;;;38.70;6.80;;;;;;;;;;5037412;28;20690;-73
2023/01/10 06:49:50;;;;;;;52.83;8.10;;;;;;;;;;5042684;28;20470;-76
2023/01/10 06:52:15;;;;;;;48.50;7.43;;;;;;;;;;5029136;28;20061;-77
2023/01/10 06:54:41;;;;;;;48.65;8.30;;;;;;;;;;5064975;28;20392;-75
2023/01/10 06:57:07;;;;;;;40.88;5.68;;;;;;;;;;5061585;28;20044;-74
2023/01/10 06:59:32;;;;;;;40.67;5.60;;;;;;;;;;5062634;28;20123;-75
2023/01/10 07:01:57;;;;;;;45.17;5.90;;;;;;;;;;5062555;28;20033;-75
2023/01/10 07:04:23;;;;;;;35.38;5.68;;;;;;;;;;5065267;28;20033;-75
2023/01/10 07:06:50;;;;;;;42.20;6.55;;;;;;;;;;5065137;28;20477;-74
2023/01/10 07:09:16;;;;;;;39.15;5.97;;;;;;;;;;5066400;28;20036;-75
2023/01/10 07:11:41;;;;;;;43.63;6.70;;;;;;;;;;5046603;28;20054;-75
2023/01/10 07:14:08;;;;;;;49.25;7.28;;;;;;;;;;5063689;28;20024;-75
2023/01/10 07:16:34;;;;;;;43.45;7.22;;;;;;;;;;5062982;28;20056;-75
2023/01/10 07:18:59;;;;;;;54.78;7.60;;;;;;;;;;5064093;28;20444;-75
2023/01/10 07:21:25;;;;;;;45.78;7.90;;;;;;;;;;5062952;28;20044;-75
2023/01/10 07:23:51;;;;;;;48.35;7.13;;;;;;;;;;5063949;28;20118;-75
2023/01/10 07:26:17;;;;;;;38.28;6.43;;;;;;;;;;5062985;28;20036;-74
2023/01/10 07:28:49;;;;;;;42.65;6.65;;;;;;;;;;5063706;28;20070;-74
2023/01/10 07:31:22;;;;;;;61.63;8.25;;;;;;;;;;5063489;28;20029;-75
2023/01/10 07:33:48;;;;;;;61.15;9.02;;;;;;;;;;5045150;28;20024;-75
2023/01/10 07:36:13;;;;;;;62.97;9.05;;;;;;;;;;5063456;28;20086;-75
2023/01/10 07:38:39;;;;;;;56.53;8.48;;;;;;;;;;5063823;28;20028;-75
2023/01/10 07:41:05;;;;;;;56.90;8.05;;;;;;;;;;5062491;28;20055;-75
2023/01/10 07:43:31;;;;;;;41.53;7.20;;;;;;;;;;5064072;28;20115;-74
2023/01/10 07:45:59;;;;;;;53.60;7.03;;;;;;;;;;5064108;28;20506;-76
2023/01/10 07:48:25;;;;;;;59.53;7.38;;;;;;;;;;5063457;28;20078;-74
2023/01/10 07:50:53;;;;;;;49.42;7.07;;;;;;;;;;5062806;28;20024;-75
2023/01/10 07:53:19;;;;;;;50.45;6.68;;;;;;;;;;5062306;28;20716;-75
2023/01/10 07:55:44;;;;;;;44.17;6.50;;;;;;;;;;5064533;28;20038;-78
2023/01/10 07:58:10;;;;;;;63.17;8.85;;;;;;;;;;5063491;28;20082;-75
2023/01/10 08:00:35;;;;;;;47.65;7.93;;;;;;;;;;5064762;28;20023;-75
2023/01/10 08:03:03;;;;;;;54.80;8.38;;;;;;;;;;5063864;28;20027;-74
2023/01/10 08:05:28;;;;;;;51.47;7.32;;;;;;;;;;5061001;28;20393;-75
2023/01/10 08:07:58;;;;;;;61.63;9.07;;;;;;;;;;5061843;28;20381;-74
2023/01/10 08:10:24;;;;;;;52.25;7.18;;;;;;;;;;5061279;28;20028;-73
2023/01/10 08:12:50;;;;;;;52.63;7.20;;;;;;;;;;5039389;28;20253;-73
2023/01/10 08:15:15;;;;;;;46.90;6.15;;;;;;;;;;5038746;28;20328;-73
2023/01/10 08:17:41;;;;;;;47.45;8.27;;;;;;;;;;5043178;28;20078;-76
2023/01/10 08:20:07;;;;;;;48.45;6.28;;;;;;;;;;5063516;28;20040;-74
2023/01/10 08:22:32;;;;;;;50.17;6.97;;;;;;;;;;5063215;28;20108;-74
2023/01/10 08:24:57;;;;;;;63.55;7.28;;;;;;;;;;5063662;28;20060;-74
2023/01/10 08:27:23;;;;;;;55.33;8.15;;;;;;;;;;5066554;28;20032;-75
2023/01/10 08:29:48;;;;;;;49.25;8.10;;;;;;;;;;5065770;28;20515;-74
2023/01/10 08:32:13;;;;;;;53.08;7.05;;;;;;;;;;5067645;28;20024;-74
2023/01/10 08:34:39;;;;;;;52.47;6.78;;;;;;;;;;5067782;28;20020;-75
2023/01/10 08:37:04;;;;;;;56.33;6.72;;;;;;;;;;5066955;28;20485;-75
2023/01/10 08:39:34;;;;;;;48.53;7.07;;;;;;;;;;5064574;28;20036;-75
2023/01/10 08:41:59;;;;;;;42.38;5.55;;;;;;;;;;5065190;28;20032;-75
2023/01/10 08:44:25;;;;;;;37.33;5.35;;;;;;;;;;5064150;28;20579;-75
2023/01/10 08:46:51;;;;;;;34.33;5.10;;;;;;;;;;5065142;28;20116;-75
2023/01/10 08:49:16;;;;;;;33.00;5.13;;;;;;;;;;5066397;28;20112;-74
2023/01/10 08:51:43;;;;;;;25.00;4.47;;;;;;;;;;5066450;28;20618;-76
2023/01/10 08:54:08;;;;;;;36.97;4.93;;;;;;;;;;5065329;28;20032;-75
2023/01/10 08:56:38;;;;;;;30.17;4.88;;;;;;;;;;5065648;28;20147;-74
2023/01/10 08:59:04;;;;;;;42.00;5.35;;;;;;;;;;5066942;28;20485;-74
2023/01/10 09:01:29;;;;;;;32.08;4.15;;;;;;;;;;5066975;28;20056;-75
2023/01/10 09:03:55;;;;;;;30.55;4.72;;;;;;;;;;5067400;28;20056;-75
2023/01/10 09:06:23;;;;;;;43.63;8.45;;;;;;;;;;5048615;28;20426;-75
2023/01/10 09:08:50;;;;;;;49.05;11.00;;;;;;;;;;5066742;28;20032;-76
2023/01/10 09:11:16;;;;;;;46.05;8.48;;;;;;;;;;5066151;28;20032;-73
2023/01/10 09:13:41;;;;;;;40.67;10.23;;;;;;;;;;5065634;28;20051;-75
2023/01/10 09:16:06;;;;;;;45.97;9.60;;;;;;;;;;5065485;28;20524;-74
2023/01/10 09:18:32;;;;;;;49.95;8.15;;;;;;;;;;5064591;28;20024;-75
2023/01/10 09:20:58;;;;;;;43.13;8.85;;;;;;;;;;5063341;28;20119;-74
2023/01/10 09:23:24;;;;;;;50.50;8.95;;;;;;;;;;5063269;28;20489;-75
2023/01/10 09:25:53;;;;;;;42.08;9.63;;;;;;;;;;5064764;28;20040;-75
2023/01/10 09:28:23;;;;;;;47.95;10.60;;;;;;;;;;5064991;28;20119;-75
2023/01/10 09:30:48;;;;;;;36.70;8.60;;;;;;;;;;5065032;28;20111;-75
2023/01/10 09:33:13;;;;;;;34.08;8.90;;;;;;;;;;5065714;28;20123;-75
2023/01/10 09:35:40;;;;;;;40.40;7.93;;;;;;;;;;5064503;28;20047;-74
2023/01/10 09:38:06;;;;;;;50.80;8.90;;;;;;;;;;5065367;28;20032;-76
2023/01/10 09:40:41;;;;;;;45.35;8.60;;;;;;;;;;5064111;28;20389;-75
2023/01/10 09:43:16;;;;;;;33.88;7.95;;;;;;;;;;5065455;28;20371;-75
2023/01/10 09:45:42;;;;;;;39.33;8.35;;;;;;;;;;5045816;28;20481;-76
2023/01/10 09:48:09;;;;;;;40.33;7.43;;;;;;;;;;5067782;28;20031;-75
2023/01/10 09:50:44;;;;;;;37.83;8.75;;;;;;;;;;5066197;28;20029;-74
2023/01/10 09:53:15;;;;;;;42.83;7.45;;;;;;;;;;5064641;28;20059;-75
2023/01/10 09:55:41;;;;;;;40.63;8.88;;;;;;;;;;5052420;28;20102;-74
2023/01/10 09:58:10;;;;;;;37.17;9.15;;;;;;;;;;5044287;28;20453;-73
2023/01/10 10:00:38;;;;;;;33.15;7.15;;;;;;;;;;5041432;28;20540;-73
2023/01/10 10:03:10;;;;;;;44.38;7.43;;;;;;;;;;5040769;28;20272;-71
2023/01/10 10:05:35;;;;;;;40.17;7.63;;;;;;;;;;5042858;28;20340;-72
2023/01/10 10:08:03;;;;;;;33.85;7.88;;;;;;;;;;5043728;28;20476;-72
2023/01/10 10:10:33;;;;;;;47.28;9.00;;;;;;;;;;5047990;28;20033;-76
2023/01/10 10:12:59;;;;;;;35.35;7.65;;;;;;;;;;5065690;28;20029;-75
2023/01/10 10:15:38;;;;;;;36.47;7.35;;;;;;;;;;5065895;28;20029;-75
2023/01/10 10:18:10;;;;;;;24.73;5.93;;;;;;;;;;5066123;28;20029;-74
2023/01/10 10:20:57;;;;;;;33.77;9.40;;;;;;;;;;5057507;28;20064;-72
2023/01/10 10:23:30;;;;;;;34.78;8.95;;;;;;;;;;5039494;28;20515;-72
2023/01/10 10:25:59;;;;;;;30.52;6.22;;;;;;;;;;5037849;28;20028;-73
2023/01/10 10:28:31;;;;;;;31.92;5.40;;;;;;;;;;5023227;28;20739;-72
2023/01/10 10:31:05;;;;;;;25.67;6.28;;;;;;;;;;5020207;28;20428;-73
2023/01/10 10:33:49;;;;;;;28.75;7.00;;;;;;;;;;5023172;28;20033;-73
2023/01/10 10:36:22;;;;;;;31.67;6.90;;;;;;;;;;5019039;28;20037;-72
2023/01/10 10:38:48;;;;;;;41.25;8.73;;;;;;;;;;5022521;28;20078;-72
2023/01/10 10:41:24;;;;;;;37.05;7.63;;;;;;;;;;5022917;28;20022;-72
2023/01/10 10:43:51;;;;;;;36.63;7.22;;;;;;;;;;5020927;28;20029;-73
2023/01/10 10:46:19;;;;;;;37.80;6.88;;;;;;;;;;5028733;28;20935;-72
2023/01/10 10:48:57;;;;;;;31.65;6.78;;;;;;;;;;5020192;28;20029;-73
2023/01/10 10:51:33;;;;;;;32.47;7.80;;;;;;;;;;5043451;28;20420;-73
2023/01/10 10:53:58;;;;;;;40.35;7.93;;;;;;;;;;5043102;28;20024;-72
2023/01/10 10:56:25;;;;;;;39.85;8.38;;;;;;;;;;5041002;28;20382;-73
2023/01/10 10:58:54;;;;;;;55.30;12.98;;;;;;;;;;5042859;28;20604;-72
2023/01/10 11:01:20;;;;;;;50.83;10.98;;;;;;;;;;5045789;28;20040;-76
2023/01/10 11:03:51;;;;;;;38.03;9.77;;;;;;;;;;5064368;28;20067;-73
2023/01/10 11:06:19;;;;;;;41.50;9.80;;;;;;;;;;5063455;28;20029;-75
2023/01/10 11:08:49;;;;;;;36.42;8.65;;;;;;;;;;5064260;28;20120;-74
2023/01/10 11:11:23;;;;;;;29.08;7.30;;;;;;;;;;5064373;28;20021;-76
2023/01/10 11:13:56;;;;;;;41.50;9.32;;;;;;;;;;5064626;28;20021;-74
2023/01/10 11:16:27;;;;;;;32.10;7.68;;;;;;;;;;5064043;28;20036;-73
2023/01/10 11:19:12;;;;;;;33.97;7.80;;;;;;;;;;5064033;28;20115;-74
2023/01/10 11:21:38;;;;;;;38.50;9.32;;;;;;;;;;5063809;28;20058;-75
2023/01/10 11:24:04;;;;;;;40.22;8.85;;;;;;;;;;5062443;28;20090;-74
2023/01/10 11:26:38;;;;;;;34.70;6.50;;;;;;;;;;5063334;28;20040;-74
2023/01/10 11:29:22;;;;;;;41.33;8.65;;;;;;;;;;5061994;28;20060;-74
2023/01/10 11:31:48;;;;;;;39.17;7.28;;;;;;;;;;5064118;28;20545;-74
2023/01/10 11:34:21;;;;;;;39.47;9.85;;;;;;;;;;5063532;28;20244;-76
2023/01/10 11:36:55;;;;;;;33.97;9.40;;;;;;;;;;5063346;28;20424;-74
2023/01/10 11:39:21;;;;;;;35.30;7.57;;;;;;;;;;5063656;28;20060;-74
2023/01/10 11:41:48;;;;;;;31.60;7.20;;;;;;;;;;5046335;28;20060;-76
2023/01/10 11:44:22;;;;;;;32.03;6.75;;;;;;;;;;5063687;28;20115;-75
2023/01/10 11:46:52;;;;;;;31.48;6.50;;;;;;;;;;5061006;28;20039;-75
2023/01/10 11:49:38;;;;;;;32.83;6.57;;;;;;;;;;5063615;28;20028;-73
2023/01/10 11:52:15;;;;;;;36.63;7.65;;;;;;;;;;5095121;28;20048;-73
2023/01/10 11:54:40;;;;;;;45.58;10.95;;;;;;;;;;5064295;28;20033;-74
2023/01/10 11:57:11;;;;;;;40.33;8.77;;;;;;;;;;5061951;28;20097;-76
2023/01/10 11:59:38;;;;;;;40.53;9.05;;;;;;;;;;5062876;28;20108;-77
2023/01/10 12:02:15;;;;;;;46.78;10.95;;;;;;;;;;5062354;28;20029;-73
2023/01/10 12:04:43;;;;;;;35.42;9.20;;;;;;;;;;5063538;28;20024;-75
2023/01/10 12:07:10;;;;;;;35.88;9.43;;;;;;;;;;5057836;28;21007;-71
2023/01/10 12:09:36;;;;;;;43.50;9.38;;;;;;;;;;5022779;28;20032;-71
2023/01/10 12:12:10;;;;;;;38.55;9.02;;;;;;;;;;5040975;28;20472;-74
2023/01/10 12:14:35;;;;;;;36.28;9.85;;;;;;;;;;5041525;28;20033;-73
2023/01/10 12:17:01;;;;;;;36.20;8.95;;;;;;;;;;5041571;28;20141;-73
2023/01/10 12:19:27;;;;;;;41.95;9.80;;;;;;;;;;5041393;28;20496;-72
2023/01/10 12:21:53;;;;;;;44.67;9.93;;;;;;;;;;5041072;28;20040;-74
2023/01/10 12:24:23;;;;;;;38.28;9.48;;;;;;;;;;5031201;28;20140;-73
2023/01/10 12:26:50;;;;;;;37.15;8.65;;;;;;;;;;5018465;28;20094;-71
2023/01/10 12:29:21;;;;;;;40.95;10.50;;;;;;;;;;5022151;28;20468;-73
2023/01/10 12:31:52;;;;;;;41.05;11.38;;;;;;;;;;5021134;28;20106;-72
2023/01/10 12:34:21;;;;;;;45.10;10.85;;;;;;;;;;5021327;28;20032;-74
2023/01/10 12:36:58;;;;;;;45.67;11.73;;;;;;;;;;5021288;28;20482;-72
2023/01/10 12:39:26;;;;;;;44.65;9.02;;;;;;;;;;5020897;28;20416;-73
2023/01/10 12:45:11;;;;;;;36.85;8.38;;;;;;;;;;4976490;28;20030;-73
2023/01/10 12:47:41;;;;;;;40.90;8.95;;;;;;;;;;5061308;28;20104;-73
2023/01/10 12:50:22;;;;;;;45.20;10.27;;;;;;;;;;5041000;28;20132;-72
2023/01/10 12:52:55;;;;;;;45.78;10.90;;;;;;;;;;5041030;28;20046;-72
2023/01/10 12:55:24;;;;;;;34.05;9.25;;;;;;;;;;5041093;28;20086;-72
2023/01/10 12:57:52;;;;;;;38.50;9.35;;;;;;;;;;5038139;28;20506;-73
2023/01/10 13:00:18;;;;;;;36.13;8.88;;;;;;;;;;5039426;28;20073;-73
2023/01/10 13:02:45;;;;;;;45.78;10.27;;;;;;;;;;5040940;28;20366;-71
2023/01/10 13:05:18;;;;;;;41.95;9.82;;;;;;;;;;5040728;28;20108;-73
2023/01/10 13:07:45;;;;;;;42.40;9.82;;;;;;;;;;5039448;28;20106;-73
2023/01/10 13:10:14;;;;;;;41.15;8.73;;;;;;;;;;5038547;28;20055;-73
2023/01/10 13:12:42;;;;;;;41.22;8.88;;;;;;;;;;5041919;28;20135;-73
2023/01/10 13:15:16;;;;;;;32.85;9.52;;;;;;;;;;5041812;28;20025;-73
2023/01/10 13:17:46;;;;;;;33.25;9.30;;;;;;;;;;5043060;28;20116;-73
2023/01/10 13:20:15;;;;;;;39.55;11.27;;;;;;;;;;5043567;28;20036;-73
2023/01/10 13:22:44;;;;;;;34.58;9.25;;;;;;;;;;5036604;28;20036;-74
2023/01/10 13:25:21;;;;;;;32.90;7.80;;;;;;;;;;5055237;28;20112;-73
2023/01/10 13:27:50;;;;;;;36.33;9.25;;;;;;;;;;5024793;28;20036;-72
2023/01/10 13:30:26;;;;;;;35.92;8.73;;;;;;;;;;5025924;28;20041;-74
2023/01/10 13:32:59;;;;;;;34.92;8.40;;;;;;;;;;5024337;28;20025;-75
2023/01/10 13:35:27;;;;;;;32.63;8.27;;;;;;;;;;5054994;28;20041;-76
2023/01/10 13:37:53;;;;;;;44.17;10.52;;;;;;;;;;5024535;28;20490;-75
2023/01/10 13:40:27;;;;;;;38.92;10.50;;;;;;;;;;5024566;28;20045;-74
2023/01/10 13:43:22;;;;;;;42.08;11.32;;;;;;;;;;5004245;28;20357;-73
2023/01/10 13:46:10;;;;;;;54.20;18.23;;;;;;;;;;5015483;28;20276;-73
2023/01/10 13:48:38;;;;;;;54.25;16.35;;;;;;;;;;5008438;28;20604;-73
2023/01/10 13:51:21;;;;;;;47.17;15.77;;;;;;;;;;5021446;28;20033;-73
2023/01/10 13:53:56;;;;;;;56.13;18.40;;;;;;;;;;5022003;28;20564;-72
2023/01/10 13:56:30;;;;;;;55.65;18.65;;;;;;;;;;5020085;28;20413;-72
2023/01/10 14:04:27;;;;;;;46.40;10.75;;;;;;;;;;5023101;28;20618;-72
2023/01/10 14:07:11;;;;;;;51.20;16.38;;;;;;;;;;5023765;28;23055;-73
2023/01/10 14:09:43;;;;;;;51.88;11.32;;;;;;;;;;5023475;28;20029;-72
2023/01/10 14:12:17;;;;;;;34.70;8.95;;;;;;;;;;5021262;28;20042;-71
2023/01/10 14:14:48;;;;;;;29.02;9.35;;;;;;;;;;5021225;28;20037;-71
2023/01/10 14:17:20;;;;;;;28.90;7.78;;;;;;;;;;5023868;28;20036;-72
2023/01/10 14:19:47;;;;;;;31.55;7.40;;;;;;;;;;5023220;28;20052;-72
2023/01/10 14:22:24;;;;;;;30.90;7.88;;;;;;;;;;5023101;28;20045;-72
2023/01/10 14:24:51;;;;;;;33.13;8.20;;;;;;;;;;5021932;28;20492;-71
2023/01/10 14:27:20;;;;;;;37.00;9.32;;;;;;;;;;5023327;28;20508;-71
2023/01/10 14:29:54;;;;;;;37.08;9.57;;;;;;;;;;5023757;28;20037;-72
2023/01/10 14:32:42;;;;;;;31.38;7.72;;;;;;;;;;5020445;28;20043;-72
2023/01/10 14:35:13;;;;;;;33.70;7.00;;;;;;;;;;5020689;28;20320;-70
2023/01/10 14:37:40;;;;;;;28.73;7.38;;;;;;;;;;5022894;28;20021;-72
2023/01/10 14:40:13;;;;;;;34.25;7.35;;;;;;;;;;5054004;28;20036;-71
2023/01/10 14:42:39;;;;;;;37.08;9.05;;;;;;;;;;5022440;28;20021;-72
2023/01/10 14:45:15;;;;;;;25.80;6.50;;;;;;;;;;5024677;28;20441;-73
2023/01/10 14:47:41;;;;;;;31.00;8.93;;;;;;;;;;5042493;28;20035;-73
2023/01/10 14:50:21;;;;;;;29.13;8.38;;;;;;;;;;5047070;28;20025;-73
2023/01/10 14:52:46;;;;;;;31.23;7.20;;;;;;;;;;5047813;28;20305;-74
2023/01/10 14:55:15;;;;;;;36.88;11.63;;;;;;;;;;5049761;28;20603;-73